sensor_id;sensor_type;location;lat;lon;timestamp;P1;durP1;ratioP1;P2;durP2;ratioP2
3771;SDS011;1901;48.172;12.824;2022-07-06T00:02:02;4.00;;;3.67;;
3771;SDS011;1901;48.172;12.824;2022-07-06T00:04:29;3.80;;;2.87;;
3771;SDS011;1901;48.172;12.824;2022-07-06T00:06:56;3.00;;;2.70;;
3771;SDS011;1901;48.172;12.824;2022-07-06T00:09:24;2.77;;;2.57;;
3771;SDS011;1901;48.172;12.824;2022-07-06T00:11:51;3.17;;;2.40;;
3771;SDS011;1901;48.172;12.824;2022-07-06T00:14:18;5.70;;;3.03;;
3771;SDS011;1901;48.172;12.824;2022-07-06T00:16:46;3.30;;;2.60;;
3771;SDS011;1901;48.172;12.824;2022-07-06T00:19:13;4.43;;;3.03;;
3771;SDS011;1901;48.172;12.824;2022-07-06T00:21:40;3.80;;;2.77;;
3771;SDS011;1901;48.172;12.824;2022-07-06T00:24:07;4.27;;;2.73;;
3771;SDS011;1901;48.172;12.824;2022-07-06T00:26:35;2.93;;;2.63;;
3771;SDS011;1901;48.172;12.824;2022-07-06T00:29:02;3.10;;;2.80;;
3771;SDS011;1901;48.172;12.824;2022-07-06T00:31:29;3.00;;;2.70;;
3771;SDS011;1901;48.172;12.824;2022-07-06T00:33:57;6.63;;;2.70;;
3771;SDS011;1901;48.172;12.824;2022-07-06T00:36:25;3.13;;;2.83;;
3771;SDS011;1901;48.172;12.824;2022-07-06T00:38:52;3.30;;;2.93;;
3771;SDS011;1901;48.172;12.824;2022-07-06T00:41:20;4.00;;;3.03;;
3771;SDS011;1901;48.172;12.824;2022-07-06T00:43:50;2.73;;;2.53;;
3771;SDS011;1901;48.172;12.824;2022-07-06T00:46:17;3.27;;;2.97;;
3771;SDS011;1901;48.172;12.824;2022-07-06T00:48:45;6.23;;;3.37;;
3771;SDS011;1901;48.172;12.824;2022-07-06T00:51:13;7.53;;;2.87;;
3771;SDS011;1901;48.172;12.824;2022-07-06T00:53:41;5.87;;;3.13;;
3771;SDS011;1901;48.172;12.824;2022-07-06T00:56:09;3.03;;;2.73;;
3771;SDS011;1901;48.172;12.824;2022-07-06T00:58:36;3.60;;;2.93;;
3771;SDS011;1901;48.172;12.824;2022-07-06T01:01:03;4.03;;;3.20;;
3771;SDS011;1901;48.172;12.824;2022-07-06T01:03:31;4.33;;;2.87;;
3771;SDS011;1901;48.172;12.824;2022-07-06T01:05:59;6.50;;;3.20;;
3771;SDS011;1901;48.172;12.824;2022-07-06T01:08:27;3.47;;;3.17;;
3771;SDS011;1901;48.172;12.824;2022-07-06T01:10:55;4.87;;;3.30;;
3771;SDS011;1901;48.172;12.824;2022-07-06T01:13:22;4.80;;;3.23;;
3771;SDS011;1901;48.172;12.824;2022-07-06T01:15:49;3.77;;;3.37;;
3771;SDS011;1901;48.172;12.824;2022-07-06T01:18:16;4.00;;;3.23;;
3771;SDS011;1901;48.172;12.824;2022-07-06T01:20:45;3.97;;;3.60;;
3771;SDS011;1901;48.172;12.824;2022-07-06T01:23:12;4.37;;;3.63;;
3771;SDS011;1901;48.172;12.824;2022-07-06T01:25:39;4.10;;;3.43;;
3771;SDS011;1901;48.172;12.824;2022-07-06T01:28:06;4.77;;;4.30;;
3771;SDS011;1901;48.172;12.824;2022-07-06T01:30:33;4.50;;;3.63;;
3771;SDS011;1901;48.172;12.824;2022-07-06T01:33:00;3.90;;;3.60;;
3771;SDS011;1901;48.172;12.824;2022-07-06T01:35:28;4.70;;;4.30;;
3771;SDS011;1901;48.172;12.824;2022-07-06T01:37:57;6.30;;;3.90;;
3771;SDS011;1901;48.172;12.824;2022-07-06T01:40:24;5.10;;;3.97;;
3771;SDS011;1901;48.172;12.824;2022-07-06T01:42:51;5.93;;;3.87;;
3771;SDS011;1901;48.172;12.824;2022-07-06T01:45:18;6.53;;;4.10;;
3771;SDS011;1901;48.172;12.824;2022-07-06T01:47:45;5.03;;;3.97;;
3771;SDS011;1901;48.172;12.824;2022-07-06T01:50:13;4.13;;;3.70;;
3771;SDS011;1901;48.172;12.824;2022-07-06T01:52:40;4.47;;;4.17;;
3771;SDS011;1901;48.172;12.824;2022-07-06T01:55:08;8.60;;;3.80;;
3771;SDS011;1901;48.172;12.824;2022-07-06T01:57:36;5.40;;;4.63;;
3771;SDS011;1901;48.172;12.824;2022-07-06T02:00:04;4.63;;;4.23;;
3771;SDS011;1901;48.172;12.824;2022-07-06T02:02:31;7.70;;;4.77;;
3771;SDS011;1901;48.172;12.824;2022-07-06T02:04:58;4.27;;;3.97;;
3771;SDS011;1901;48.172;12.824;2022-07-06T02:07:25;8.50;;;4.53;;
3771;SDS011;1901;48.172;12.824;2022-07-06T02:09:52;3.90;;;3.60;;
3771;SDS011;1901;48.172;12.824;2022-07-06T02:12:21;4.57;;;4.17;;
3771;SDS011;1901;48.172;12.824;2022-07-06T02:14:48;4.67;;;4.27;;
3771;SDS011;1901;48.172;12.824;2022-07-06T02:17:15;4.60;;;4.20;;
3771;SDS011;1901;48.172;12.824;2022-07-06T02:19:42;4.00;;;3.70;;
3771;SDS011;1901;48.172;12.824;2022-07-06T02:22:09;4.50;;;4.10;;
3771;SDS011;1901;48.172;12.824;2022-07-06T02:24:36;4.93;;;4.43;;
3771;SDS011;1901;48.172;12.824;2022-07-06T02:27:04;6.10;;;4.23;;
3771;SDS011;1901;48.172;12.824;2022-07-06T02:29:32;7.40;;;4.60;;
3771;SDS011;1901;48.172;12.824;2022-07-06T02:31:59;5.13;;;4.67;;
3771;SDS011;1901;48.172;12.824;2022-07-06T02:34:26;6.10;;;4.63;;
3771;SDS011;1901;48.172;12.824;2022-07-06T02:36:53;6.00;;;4.30;;
3771;SDS011;1901;48.172;12.824;2022-07-06T02:39:20;4.70;;;4.30;;
3771;SDS011;1901;48.172;12.824;2022-07-06T02:41:48;8.73;;;6.20;;
3771;SDS011;1901;48.172;12.824;2022-07-06T02:44:15;6.07;;;4.67;;
3771;SDS011;1901;48.172;12.824;2022-07-06T02:46:43;5.50;;;5.00;;
3771;SDS011;1901;48.172;12.824;2022-07-06T02:49:10;5.97;;;4.77;;
3771;SDS011;1901;48.172;12.824;2022-07-06T02:51:37;5.40;;;4.63;;
3771;SDS011;1901;48.172;12.824;2022-07-06T02:54:05;7.60;;;5.10;;
3771;SDS011;1901;48.172;12.824;2022-07-06T02:56:32;6.13;;;4.50;;
3771;SDS011;1901;48.172;12.824;2022-07-06T02:58:59;5.60;;;4.80;;
3771;SDS011;1901;48.172;12.824;2022-07-06T03:01:26;7.20;;;5.33;;
3771;SDS011;1901;48.172;12.824;2022-07-06T03:03:54;6.50;;;4.63;;
3771;SDS011;1901;48.172;12.824;2022-07-06T03:06:21;7.50;;;5.10;;
3771;SDS011;1901;48.172;12.824;2022-07-06T03:08:49;4.90;;;4.50;;
3771;SDS011;1901;48.172;12.824;2022-07-06T03:11:16;8.10;;;5.50;;
3771;SDS011;1901;48.172;12.824;2022-07-06T03:13:43;5.57;;;5.07;;
3771;SDS011;1901;48.172;12.824;2022-07-06T03:16:10;5.40;;;4.80;;
3771;SDS011;1901;48.172;12.824;2022-07-06T03:18:37;5.10;;;4.70;;
3771;SDS011;1901;48.172;12.824;2022-07-06T03:21:05;4.97;;;4.50;;
3771;SDS011;1901;48.172;12.824;2022-07-06T03:23:33;4.97;;;4.30;;
3771;SDS011;1901;48.172;12.824;2022-07-06T03:26:00;5.53;;;4.70;;
3771;SDS011;1901;48.172;12.824;2022-07-06T03:28:27;4.77;;;4.37;;
3771;SDS011;1901;48.172;12.824;2022-07-06T03:30:54;4.90;;;4.50;;
3771;SDS011;1901;48.172;12.824;2022-07-06T03:33:21;4.80;;;4.40;;
3771;SDS011;1901;48.172;12.824;2022-07-06T03:35:48;4.17;;;3.87;;
3771;SDS011;1901;48.172;12.824;2022-07-06T03:38:17;7.30;;;4.57;;
3771;SDS011;1901;48.172;12.824;2022-07-06T03:40:44;4.70;;;4.30;;
3771;SDS011;1901;48.172;12.824;2022-07-06T03:43:11;4.53;;;3.97;;
3771;SDS011;1901;48.172;12.824;2022-07-06T03:45:38;3.70;;;3.40;;
3771;SDS011;1901;48.172;12.824;2022-07-06T03:48:05;4.10;;;3.70;;
3771;SDS011;1901;48.172;12.824;2022-07-06T03:50:32;3.40;;;3.00;;
3771;SDS011;1901;48.172;12.824;2022-07-06T03:53:00;3.87;;;3.50;;
3771;SDS011;1901;48.172;12.824;2022-07-06T03:55:28;4.93;;;3.37;;
3771;SDS011;1901;48.172;12.824;2022-07-06T03:57:55;8.33;;;5.20;;
3771;SDS011;1901;48.172;12.824;2022-07-06T04:00:23;4.10;;;3.77;;
3771;SDS011;1901;48.172;12.824;2022-07-06T04:02:50;3.80;;;3.40;;
3771;SDS011;1901;48.172;12.824;2022-07-06T04:05:17;9.57;;;4.10;;
3771;SDS011;1901;48.172;12.824;2022-07-06T04:07:46;11.03;;;3.20;;
3771;SDS011;1901;48.172;12.824;2022-07-06T04:10:13;4.63;;;2.77;;
3771;SDS011;1901;48.172;12.824;2022-07-06T04:12:42;3.07;;;2.70;;
3771;SDS011;1901;48.172;12.824;2022-07-06T04:15:10;3.20;;;2.90;;
3771;SDS011;1901;48.172;12.824;2022-07-06T04:17:37;4.33;;;3.93;;
3771;SDS011;1901;48.172;12.824;2022-07-06T04:20:21;3.00;;;2.80;;
3771;SDS011;1901;48.172;12.824;2022-07-06T04:22:48;5.33;;;2.97;;
3771;SDS011;1901;48.172;12.824;2022-07-06T04:25:15;4.70;;;2.80;;
3771;SDS011;1901;48.172;12.824;2022-07-06T04:27:44;2.70;;;2.50;;
3771;SDS011;1901;48.172;12.824;2022-07-06T04:30:12;3.50;;;2.43;;
3771;SDS011;1901;48.172;12.824;2022-07-06T04:32:39;11.93;;;3.00;;
3771;SDS011;1901;48.172;12.824;2022-07-06T04:35:06;6.10;;;2.63;;
3771;SDS011;1901;48.172;12.824;2022-07-06T04:37:33;4.53;;;2.63;;
3771;SDS011;1901;48.172;12.824;2022-07-06T04:40:01;3.57;;;3.00;;
3771;SDS011;1901;48.172;12.824;2022-07-06T04:42:28;6.20;;;3.73;;
3771;SDS011;1901;48.172;12.824;2022-07-06T04:44:57;2.40;;;2.20;;
3771;SDS011;1901;48.172;12.824;2022-07-06T04:47:24;2.63;;;2.43;;
3771;SDS011;1901;48.172;12.824;2022-07-06T04:49:51;9.93;;;2.37;;
3771;SDS011;1901;48.172;12.824;2022-07-06T04:52:18;7.80;;;2.60;;
3771;SDS011;1901;48.172;12.824;2022-07-06T04:54:45;2.80;;;2.50;;
3771;SDS011;1901;48.172;12.824;2022-07-06T04:57:13;3.20;;;2.57;;
3771;SDS011;1901;48.172;12.824;2022-07-06T04:59:40;5.80;;;2.30;;
3771;SDS011;1901;48.172;12.824;2022-07-06T05:02:08;6.43;;;3.67;;
3771;SDS011;1901;48.172;12.824;2022-07-06T05:04:35;3.90;;;2.70;;
3771;SDS011;1901;48.172;12.824;2022-07-06T05:07:03;3.60;;;2.20;;
3771;SDS011;1901;48.172;12.824;2022-07-06T05:09:30;2.83;;;1.90;;
3771;SDS011;1901;48.172;12.824;2022-07-06T05:11:57;7.10;;;2.50;;
3771;SDS011;1901;48.172;12.824;2022-07-06T05:14:24;2.73;;;2.53;;
3771;SDS011;1901;48.172;12.824;2022-07-06T05:16:51;5.80;;;2.37;;
3771;SDS011;1901;48.172;12.824;2022-07-06T05:19:20;2.40;;;2.10;;
3771;SDS011;1901;48.172;12.824;2022-07-06T05:21:47;3.70;;;2.20;;
3771;SDS011;1901;48.172;12.824;2022-07-06T05:24:14;3.17;;;2.20;;
3771;SDS011;1901;48.172;12.824;2022-07-06T05:26:41;2.77;;;2.30;;
3771;SDS011;1901;48.172;12.824;2022-07-06T05:29:08;2.10;;;1.83;;
3771;SDS011;1901;48.172;12.824;2022-07-06T05:31:35;1.80;;;1.60;;
3771;SDS011;1901;48.172;12.824;2022-07-06T05:34:02;3.73;;;2.00;;
3771;SDS011;1901;48.172;12.824;2022-07-06T05:36:31;4.10;;;2.20;;
3771;SDS011;1901;48.172;12.824;2022-07-06T05:38:58;2.80;;;1.97;;
3771;SDS011;1901;48.172;12.824;2022-07-06T05:41:25;2.27;;;1.80;;
3771;SDS011;1901;48.172;12.824;2022-07-06T05:43:52;2.73;;;2.20;;
3771;SDS011;1901;48.172;12.824;2022-07-06T05:46:19;2.83;;;1.80;;
3771;SDS011;1901;48.172;12.824;2022-07-06T05:48:46;3.20;;;2.13;;
3771;SDS011;1901;48.172;12.824;2022-07-06T05:51:32;2.73;;;1.87;;
3771;SDS011;1901;48.172;12.824;2022-07-06T05:53:59;7.33;;;1.90;;
3771;SDS011;1901;48.172;12.824;2022-07-06T05:56:27;5.07;;;1.87;;
3771;SDS011;1901;48.172;12.824;2022-07-06T05:58:54;2.73;;;2.00;;
3771;SDS011;1901;48.172;12.824;2022-07-06T06:01:21;2.70;;;1.73;;
3771;SDS011;1901;48.172;12.824;2022-07-06T06:03:48;3.23;;;1.87;;
3771;SDS011;1901;48.172;12.824;2022-07-06T06:06:15;2.30;;;2.10;;
3771;SDS011;1901;48.172;12.824;2022-07-06T06:08:43;1.70;;;1.60;;
3771;SDS011;1901;48.172;12.824;2022-07-06T06:11:10;2.20;;;1.70;;
3771;SDS011;1901;48.172;12.824;2022-07-06T06:13:38;2.90;;;1.43;;
3771;SDS011;1901;48.172;12.824;2022-07-06T06:16:05;2.40;;;2.20;;
3771;SDS011;1901;48.172;12.824;2022-07-06T06:18:32;2.10;;;1.90;;
3771;SDS011;1901;48.172;12.824;2022-07-06T06:20:59;4.13;;;1.67;;
3771;SDS011;1901;48.172;12.824;2022-07-06T06:23:26;2.40;;;1.80;;
3771;SDS011;1901;48.172;12.824;2022-07-06T06:25:54;2.23;;;1.73;;
3771;SDS011;1901;48.172;12.824;2022-07-06T06:28:21;1.90;;;1.70;;
3771;SDS011;1901;48.172;12.824;2022-07-06T06:30:48;2.00;;;1.90;;
3771;SDS011;1901;48.172;12.824;2022-07-06T06:33:16;1.60;;;1.40;;
3771;SDS011;1901;48.172;12.824;2022-07-06T06:35:45;2.67;;;1.50;;
3771;SDS011;1901;48.172;12.824;2022-07-06T06:38:13;1.67;;;1.57;;
3771;SDS011;1901;48.172;12.824;2022-07-06T06:40:40;4.23;;;1.70;;
3771;SDS011;1901;48.172;12.824;2022-07-06T06:43:09;2.77;;;2.33;;
3771;SDS011;1901;48.172;12.824;2022-07-06T06:45:36;5.70;;;1.97;;
3771;SDS011;1901;48.172;12.824;2022-07-06T06:48:04;4.37;;;2.00;;
3771;SDS011;1901;48.172;12.824;2022-07-06T06:50:31;2.20;;;1.60;;
3771;SDS011;1901;48.172;12.824;2022-07-06T06:52:58;1.83;;;1.50;;
3771;SDS011;1901;48.172;12.824;2022-07-06T06:55:26;1.67;;;1.57;;
3771;SDS011;1901;48.172;12.824;2022-07-06T06:57:53;1.83;;;1.57;;
3771;SDS011;1901;48.172;12.824;2022-07-06T07:00:21;3.70;;;1.40;;
3771;SDS011;1901;48.172;12.824;2022-07-06T07:02:48;1.70;;;1.40;;
3771;SDS011;1901;48.172;12.824;2022-07-06T07:05:16;4.23;;;2.50;;
3771;SDS011;1901;48.172;12.824;2022-07-06T07:07:43;2.13;;;1.93;;
3771;SDS011;1901;48.172;12.824;2022-07-06T07:10:10;1.93;;;1.70;;
3771;SDS011;1901;48.172;12.824;2022-07-06T07:12:42;2.53;;;1.63;;
3771;SDS011;1901;48.172;12.824;2022-07-06T07:15:09;3.70;;;1.70;;
3771;SDS011;1901;48.172;12.824;2022-07-06T07:17:37;2.60;;;1.70;;
3771;SDS011;1901;48.172;12.824;2022-07-06T07:20:05;1.90;;;1.60;;
3771;SDS011;1901;48.172;12.824;2022-07-06T07:22:33;3.43;;;1.60;;
3771;SDS011;1901;48.172;12.824;2022-07-06T07:25:00;3.00;;;1.77;;
3771;SDS011;1901;48.172;12.824;2022-07-06T07:27:27;2.30;;;1.80;;
3771;SDS011;1901;48.172;12.824;2022-07-06T07:29:54;1.80;;;1.40;;
3771;SDS011;1901;48.172;12.824;2022-07-06T07:32:21;3.33;;;1.67;;
3771;SDS011;1901;48.172;12.824;2022-07-06T07:34:50;2.27;;;1.70;;
3771;SDS011;1901;48.172;12.824;2022-07-06T07:37:17;2.40;;;1.73;;
3771;SDS011;1901;48.172;12.824;2022-07-06T07:39:44;1.77;;;1.60;;
3771;SDS011;1901;48.172;12.824;2022-07-06T07:42:11;2.70;;;1.87;;
3771;SDS011;1901;48.172;12.824;2022-07-06T07:44:38;3.40;;;1.90;;
3771;SDS011;1901;48.172;12.824;2022-07-06T07:47:06;8.40;;;1.80;;
3771;SDS011;1901;48.172;12.824;2022-07-06T07:49:33;2.37;;;1.50;;
3771;SDS011;1901;48.172;12.824;2022-07-06T07:52:01;2.60;;;1.97;;
3771;SDS011;1901;48.172;12.824;2022-07-06T07:54:29;3.63;;;2.20;;
3771;SDS011;1901;48.172;12.824;2022-07-06T07:56:56;3.20;;;1.60;;
3771;SDS011;1901;48.172;12.824;2022-07-06T07:59:23;3.57;;;2.20;;
3771;SDS011;1901;48.172;12.824;2022-07-06T08:01:50;4.20;;;1.90;;
3771;SDS011;1901;48.172;12.824;2022-07-06T08:04:17;2.07;;;1.63;;
3771;SDS011;1901;48.172;12.824;2022-07-06T08:06:45;3.40;;;1.83;;
3771;SDS011;1901;48.172;12.824;2022-07-06T08:09:13;4.00;;;1.97;;
3771;SDS011;1901;48.172;12.824;2022-07-06T08:11:41;2.77;;;1.70;;
3771;SDS011;1901;48.172;12.824;2022-07-06T08:14:08;2.70;;;1.83;;
3771;SDS011;1901;48.172;12.824;2022-07-06T08:16:36;3.33;;;1.63;;
3771;SDS011;1901;48.172;12.824;2022-07-06T08:19:03;3.73;;;1.80;;
3771;SDS011;1901;48.172;12.824;2022-07-06T08:21:31;3.00;;;1.87;;
3771;SDS011;1901;48.172;12.824;2022-07-06T08:23:58;3.50;;;2.40;;
3771;SDS011;1901;48.172;12.824;2022-07-06T08:26:27;2.30;;;2.10;;
3771;SDS011;1901;48.172;12.824;2022-07-06T08:28:54;2.80;;;1.73;;
3771;SDS011;1901;48.172;12.824;2022-07-06T08:31:21;3.30;;;2.07;;
3771;SDS011;1901;48.172;12.824;2022-07-06T08:33:48;3.60;;;2.13;;
3771;SDS011;1901;48.172;12.824;2022-07-06T08:36:18;3.20;;;1.97;;
3771;SDS011;1901;48.172;12.824;2022-07-06T08:38:45;5.10;;;2.00;;
3771;SDS011;1901;48.172;12.824;2022-07-06T08:41:13;2.13;;;1.80;;
3771;SDS011;1901;48.172;12.824;2022-07-06T08:43:42;2.47;;;1.90;;
3771;SDS011;1901;48.172;12.824;2022-07-06T08:46:09;2.90;;;1.50;;
3771;SDS011;1901;48.172;12.824;2022-07-06T08:48:40;2.10;;;1.70;;
3771;SDS011;1901;48.172;12.824;2022-07-06T08:51:08;3.50;;;1.93;;
3771;SDS011;1901;48.172;12.824;2022-07-06T08:53:35;2.77;;;2.37;;
3771;SDS011;1901;48.172;12.824;2022-07-06T08:56:02;3.03;;;1.90;;
3771;SDS011;1901;48.172;12.824;2022-07-06T08:58:29;3.07;;;1.87;;
3771;SDS011;1901;48.172;12.824;2022-07-06T09:00:59;3.80;;;2.03;;
3771;SDS011;1901;48.172;12.824;2022-07-06T09:03:26;3.07;;;1.80;;
3771;SDS011;1901;48.172;12.824;2022-07-06T09:05:56;2.63;;;2.43;;
3771;SDS011;1901;48.172;12.824;2022-07-06T09:08:25;2.10;;;1.80;;
3771;SDS011;1901;48.172;12.824;2022-07-06T09:10:54;3.50;;;1.90;;
3771;SDS011;1901;48.172;12.824;2022-07-06T09:13:21;4.80;;;2.00;;
3771;SDS011;1901;48.172;12.824;2022-07-06T09:15:48;4.13;;;1.97;;
3771;SDS011;1901;48.172;12.824;2022-07-06T09:18:16;3.90;;;1.87;;
3771;SDS011;1901;48.172;12.824;2022-07-06T09:20:43;3.50;;;1.87;;
3771;SDS011;1901;48.172;12.824;2022-07-06T09:23:14;3.07;;;2.30;;
3771;SDS011;1901;48.172;12.824;2022-07-06T09:25:42;3.30;;;1.73;;
3771;SDS011;1901;48.172;12.824;2022-07-06T09:28:09;2.90;;;1.73;;
3771;SDS011;1901;48.172;12.824;2022-07-06T09:30:36;3.07;;;2.30;;
3771;SDS011;1901;48.172;12.824;2022-07-06T09:33:05;2.10;;;1.80;;
3771;SDS011;1901;48.172;12.824;2022-07-06T09:35:37;4.50;;;1.83;;
3771;SDS011;1901;48.172;12.824;2022-07-06T09:38:05;2.20;;;1.90;;
3771;SDS011;1901;48.172;12.824;2022-07-06T09:40:32;2.57;;;2.00;;
3771;SDS011;1901;48.172;12.824;2022-07-06T09:43:07;4.23;;;2.93;;
3771;SDS011;1901;48.172;12.824;2022-07-06T09:45:34;3.70;;;2.37;;
3771;SDS011;1901;48.172;12.824;2022-07-06T09:48:05;2.33;;;1.90;;
3771;SDS011;1901;48.172;12.824;2022-07-06T09:50:39;3.97;;;1.87;;
3771;SDS011;1901;48.172;12.824;2022-07-06T09:53:06;4.53;;;1.80;;
3771;SDS011;1901;48.172;12.824;2022-07-06T09:55:33;2.03;;;1.83;;
3771;SDS011;1901;48.172;12.824;2022-07-06T09:58:00;2.60;;;1.60;;
3771;SDS011;1901;48.172;12.824;2022-07-06T10:00:27;2.70;;;2.07;;
3771;SDS011;1901;48.172;12.824;2022-07-06T10:02:54;4.43;;;3.07;;
3771;SDS011;1901;48.172;12.824;2022-07-06T10:05:22;5.07;;;3.70;;
3771;SDS011;1901;48.172;12.824;2022-07-06T10:07:56;2.33;;;2.13;;
3771;SDS011;1901;48.172;12.824;2022-07-06T10:10:25;3.50;;;3.03;;
3771;SDS011;1901;48.172;12.824;2022-07-06T10:12:53;4.80;;;3.63;;
3771;SDS011;1901;48.172;12.824;2022-07-06T10:15:21;3.90;;;2.20;;
3771;SDS011;1901;48.172;12.824;2022-07-06T10:17:48;3.70;;;2.30;;
3771;SDS011;1901;48.172;12.824;2022-07-06T10:20:16;2.30;;;2.10;;
3771;SDS011;1901;48.172;12.824;2022-07-06T10:22:44;5.97;;;2.03;;
3771;SDS011;1901;48.172;12.824;2022-07-06T10:25:12;2.57;;;1.70;;
3771;SDS011;1901;48.172;12.824;2022-07-06T10:27:39;3.50;;;2.10;;
3771;SDS011;1901;48.172;12.824;2022-07-06T10:30:08;2.87;;;2.00;;
3771;SDS011;1901;48.172;12.824;2022-07-06T10:32:35;5.90;;;2.30;;
3771;SDS011;1901;48.172;12.824;2022-07-06T10:35:04;3.80;;;2.00;;
3771;SDS011;1901;48.172;12.824;2022-07-06T10:37:31;3.30;;;2.10;;
3771;SDS011;1901;48.172;12.824;2022-07-06T10:39:59;3.93;;;2.00;;
3771;SDS011;1901;48.172;12.824;2022-07-06T10:42:45;3.70;;;2.17;;
3771;SDS011;1901;48.172;12.824;2022-07-06T10:45:15;3.47;;;2.03;;
3771;SDS011;1901;48.172;12.824;2022-07-06T10:47:43;2.37;;;2.17;;
3771;SDS011;1901;48.172;12.824;2022-07-06T10:50:10;2.57;;;2.37;;
3771;SDS011;1901;48.172;12.824;2022-07-06T10:52:47;2.30;;;2.00;;
3771;SDS011;1901;48.172;12.824;2022-07-06T10:55:27;2.93;;;1.50;;
3771;SDS011;1901;48.172;12.824;2022-07-06T10:57:56;2.30;;;1.60;;
3771;SDS011;1901;48.172;12.824;2022-07-06T11:00:23;2.40;;;1.97;;
3771;SDS011;1901;48.172;12.824;2022-07-06T11:02:50;7.30;;;2.00;;
3771;SDS011;1901;48.172;12.824;2022-07-06T11:08:00;3.90;;;1.90;;
3771;SDS011;1901;48.172;12.824;2022-07-06T11:10:27;2.90;;;2.13;;
3771;SDS011;1901;48.172;12.824;2022-07-06T11:12:59;2.23;;;2.03;;
3771;SDS011;1901;48.172;12.824;2022-07-06T11:18:12;2.63;;;1.87;;
3771;SDS011;1901;48.172;12.824;2022-07-06T11:20:39;7.20;;;2.30;;
3771;SDS011;1901;48.172;12.824;2022-07-06T11:23:06;3.00;;;2.40;;
3771;SDS011;1901;48.172;12.824;2022-07-06T11:25:34;2.27;;;2.03;;
3771;SDS011;1901;48.172;12.824;2022-07-06T11:28:02;2.57;;;2.37;;
3771;SDS011;1901;48.172;12.824;2022-07-06T11:30:29;3.53;;;1.93;;
3771;SDS011;1901;48.172;12.824;2022-07-06T11:32:56;3.90;;;2.20;;
3771;SDS011;1901;48.172;12.824;2022-07-06T11:35:23;3.17;;;1.67;;
3771;SDS011;1901;48.172;12.824;2022-07-06T11:37:51;6.17;;;2.20;;
3771;SDS011;1901;48.172;12.824;2022-07-06T11:40:18;2.60;;;1.73;;
3771;SDS011;1901;48.172;12.824;2022-07-06T11:42:52;4.40;;;2.70;;
3771;SDS011;1901;48.172;12.824;2022-07-06T11:45:26;3.77;;;1.90;;
3771;SDS011;1901;48.172;12.824;2022-07-06T11:50:35;3.50;;;2.10;;
3771;SDS011;1901;48.172;12.824;2022-07-06T11:53:02;3.30;;;2.30;;
3771;SDS011;1901;48.172;12.824;2022-07-06T11:55:29;2.40;;;1.77;;
3771;SDS011;1901;48.172;12.824;2022-07-06T11:57:56;4.03;;;1.67;;
3771;SDS011;1901;48.172;12.824;2022-07-06T12:00:24;2.33;;;1.90;;
3771;SDS011;1901;48.172;12.824;2022-07-06T12:03:00;2.67;;;2.20;;
3771;SDS011;1901;48.172;12.824;2022-07-06T12:05:31;2.37;;;2.17;;
3771;SDS011;1901;48.172;12.824;2022-07-06T12:08:04;6.07;;;2.20;;
3771;SDS011;1901;48.172;12.824;2022-07-06T12:10:31;4.83;;;2.53;;
3771;SDS011;1901;48.172;12.824;2022-07-06T12:13:02;2.63;;;1.90;;
3771;SDS011;1901;48.172;12.824;2022-07-06T12:15:29;3.77;;;1.90;;
3771;SDS011;1901;48.172;12.824;2022-07-06T12:17:56;6.37;;;2.30;;
3771;SDS011;1901;48.172;12.824;2022-07-06T12:20:25;3.30;;;2.00;;
3771;SDS011;1901;48.172;12.824;2022-07-06T12:23:00;4.63;;;2.30;;
3771;SDS011;1901;48.172;12.824;2022-07-06T12:25:30;2.63;;;2.43;;
3771;SDS011;1901;48.172;12.824;2022-07-06T12:27:57;3.33;;;2.03;;
3771;SDS011;1901;48.172;12.824;2022-07-06T12:30:24;2.30;;;2.10;;
3771;SDS011;1901;48.172;12.824;2022-07-06T12:35:38;6.23;;;2.70;;
3771;SDS011;1901;48.172;12.824;2022-07-06T12:38:06;3.77;;;2.10;;
3771;SDS011;1901;48.172;12.824;2022-07-06T12:40:34;3.80;;;2.00;;
3771;SDS011;1901;48.172;12.824;2022-07-06T12:43:02;2.60;;;2.33;;
3771;SDS011;1901;48.172;12.824;2022-07-06T12:45:30;2.40;;;2.20;;
3771;SDS011;1901;48.172;12.824;2022-07-06T12:47:58;3.40;;;2.50;;
3771;SDS011;1901;48.172;12.824;2022-07-06T12:50:32;2.80;;;2.50;;
3771;SDS011;1901;48.172;12.824;2022-07-06T12:53:01;3.07;;;2.77;;
3771;SDS011;1901;48.172;12.824;2022-07-06T12:55:28;2.87;;;2.67;;
3771;SDS011;1901;48.172;12.824;2022-07-06T12:57:56;2.70;;;2.37;;
3771;SDS011;1901;48.172;12.824;2022-07-06T13:00:24;5.13;;;2.20;;
3771;SDS011;1901;48.172;12.824;2022-07-06T13:02:52;2.43;;;2.23;;
3771;SDS011;1901;48.172;12.824;2022-07-06T13:05:24;9.37;;;2.70;;
3771;SDS011;1901;48.172;12.824;2022-07-06T13:07:54;2.00;;;1.80;;
3771;SDS011;1901;48.172;12.824;2022-07-06T13:10:23;2.33;;;2.13;;
3771;SDS011;1901;48.172;12.824;2022-07-06T13:12:50;3.90;;;2.40;;
3771;SDS011;1901;48.172;12.824;2022-07-06T13:15:17;2.23;;;2.03;;
3771;SDS011;1901;48.172;12.824;2022-07-06T13:17:44;3.90;;;2.20;;
3771;SDS011;1901;48.172;12.824;2022-07-06T13:20:12;3.43;;;2.20;;
3771;SDS011;1901;48.172;12.824;2022-07-06T13:22:42;3.73;;;2.33;;
3771;SDS011;1901;48.172;12.824;2022-07-06T13:25:09;5.13;;;2.27;;
3771;SDS011;1901;48.172;12.824;2022-07-06T13:27:39;2.67;;;2.47;;
3771;SDS011;1901;48.172;12.824;2022-07-06T13:30:07;2.30;;;2.10;;
3771;SDS011;1901;48.172;12.824;2022-07-06T13:32:35;3.17;;;2.87;;
3771;SDS011;1901;48.172;12.824;2022-07-06T13:35:02;2.93;;;2.27;;
3771;SDS011;1901;48.172;12.824;2022-07-06T13:37:29;1.93;;;1.73;;
3771;SDS011;1901;48.172;12.824;2022-07-06T13:39:58;6.13;;;2.10;;
3771;SDS011;1901;48.172;12.824;2022-07-06T13:42:25;2.37;;;2.17;;
3771;SDS011;1901;48.172;12.824;2022-07-06T13:44:53;2.70;;;2.20;;
3771;SDS011;1901;48.172;12.824;2022-07-06T13:47:20;3.97;;;2.30;;
3771;SDS011;1901;48.172;12.824;2022-07-06T13:49:47;3.90;;;3.20;;
3771;SDS011;1901;48.172;12.824;2022-07-06T13:52:15;4.53;;;2.20;;
3771;SDS011;1901;48.172;12.824;2022-07-06T13:54:42;2.67;;;2.40;;
3771;SDS011;1901;48.172;12.824;2022-07-06T13:57:09;3.00;;;2.20;;
3771;SDS011;1901;48.172;12.824;2022-07-06T13:59:36;3.30;;;2.23;;
3771;SDS011;1901;48.172;12.824;2022-07-06T14:02:04;2.30;;;2.10;;
3771;SDS011;1901;48.172;12.824;2022-07-06T14:04:32;2.50;;;2.30;;
3771;SDS011;1901;48.172;12.824;2022-07-06T14:06:59;3.73;;;2.30;;
3771;SDS011;1901;48.172;12.824;2022-07-06T14:09:26;2.90;;;2.37;;
3771;SDS011;1901;48.172;12.824;2022-07-06T14:11:54;2.20;;;2.00;;
3771;SDS011;1901;48.172;12.824;2022-07-06T14:14:21;3.60;;;3.30;;
3771;SDS011;1901;48.172;12.824;2022-07-06T14:16:48;3.10;;;2.10;;
3771;SDS011;1901;48.172;12.824;2022-07-06T14:19:17;3.40;;;2.10;;
3771;SDS011;1901;48.172;12.824;2022-07-06T14:21:46;3.03;;;2.80;;
3771;SDS011;1901;48.172;12.824;2022-07-06T14:24:13;2.70;;;2.17;;
3771;SDS011;1901;48.172;12.824;2022-07-06T14:26:40;3.73;;;2.23;;
3771;SDS011;1901;48.172;12.824;2022-07-06T14:29:07;2.87;;;2.53;;
3771;SDS011;1901;48.172;12.824;2022-07-06T14:31:34;3.40;;;2.50;;
3771;SDS011;1901;48.172;12.824;2022-07-06T14:34:01;5.20;;;2.20;;
3771;SDS011;1901;48.172;12.824;2022-07-06T14:36:30;7.60;;;2.30;;
3771;SDS011;1901;48.172;12.824;2022-07-06T14:38:58;3.80;;;2.27;;
3771;SDS011;1901;48.172;12.824;2022-07-06T14:41:25;3.90;;;2.53;;
3771;SDS011;1901;48.172;12.824;2022-07-06T14:43:52;2.57;;;2.37;;
3771;SDS011;1901;48.172;12.824;2022-07-06T14:46:19;4.00;;;2.30;;
3771;SDS011;1901;48.172;12.824;2022-07-06T14:48:47;3.80;;;2.20;;
3771;SDS011;1901;48.172;12.824;2022-07-06T14:51:14;4.73;;;2.17;;
3771;SDS011;1901;48.172;12.824;2022-07-06T14:53:42;2.60;;;2.40;;
3771;SDS011;1901;48.172;12.824;2022-07-06T14:56:09;6.97;;;2.00;;
3771;SDS011;1901;48.172;12.824;2022-07-06T14:58:36;5.60;;;2.17;;
3771;SDS011;1901;48.172;12.824;2022-07-06T15:01:04;4.03;;;2.67;;
3771;SDS011;1901;48.172;12.824;2022-07-06T15:03:31;2.60;;;2.20;;
3771;SDS011;1901;48.172;12.824;2022-07-06T15:05:58;2.10;;;1.90;;
3771;SDS011;1901;48.172;12.824;2022-07-06T15:08:25;3.23;;;2.50;;
3771;SDS011;1901;48.172;12.824;2022-07-06T15:10:54;9.57;;;2.70;;
3771;SDS011;1901;48.172;12.824;2022-07-06T15:13:21;4.63;;;2.67;;
3771;SDS011;1901;48.172;12.824;2022-07-06T15:15:48;4.10;;;2.70;;